sensor_id;sensor_type;location;lat;lon;timestamp;P1;durP1;ratioP1;P2;durP2;ratioP2
8397;SDS011;4236;54.504;9.588;2022-09-09T00:01:14;135.90;;;123.57;;
8397;SDS011;4236;54.504;9.588;2022-09-09T00:03:53;133.40;;;121.20;;
8397;SDS011;4236;54.504;9.588;2022-09-09T00:06:27;143.03;;;128.10;;
8397;SDS011;4236;54.504;9.588;2022-09-09T00:09:01;122.20;;;112.90;;
8397;SDS011;4236;54.504;9.588;2022-09-09T00:11:36;144.37;;;129.80;;
8397;SDS011;4236;54.504;9.588;2022-09-09T00:14:11;115.00;;;106.83;;
8397;SDS011;4236;54.504;9.588;2022-09-09T00:16:47;132.23;;;119.63;;
8397;SDS011;4236;54.504;9.588;2022-09-09T00:19:22;127.70;;;115.77;;
8397;SDS011;4236;54.504;9.588;2022-09-09T00:21:55;145.50;;;130.80;;
8397;SDS011;4236;54.504;9.588;2022-09-09T00:24:35;139.20;;;125.20;;
8397;SDS011;4236;54.504;9.588;2022-09-09T00:27:11;136.53;;;124.07;;
8397;SDS011;4236;54.504;9.588;2022-09-09T00:29:47;134.90;;;122.83;;
8397;SDS011;4236;54.504;9.588;2022-09-09T00:32:20;140.90;;;128.57;;
8397;SDS011;4236;54.504;9.588;2022-09-09T00:34:49;138.70;;;126.57;;
8397;SDS011;4236;54.504;9.588;2022-09-09T00:37:19;151.40;;;137.70;;
8397;SDS011;4236;54.504;9.588;2022-09-09T00:39:53;128.57;;;118.40;;
8397;SDS011;4236;54.504;9.588;2022-09-09T00:42:25;133.90;;;123.03;;
8397;SDS011;4236;54.504;9.588;2022-09-09T00:45:01;140.57;;;128.20;;
8397;SDS011;4236;54.504;9.588;2022-09-09T00:47:43;147.70;;;134.87;;
8397;SDS011;4236;54.504;9.588;2022-09-09T00:50:27;141.43;;;129.57;;
8397;SDS011;4236;54.504;9.588;2022-09-09T00:53:05;153.30;;;138.77;;
8397;SDS011;4236;54.504;9.588;2022-09-09T00:55:51;133.17;;;123.57;;
8397;SDS011;4236;54.504;9.588;2022-09-09T00:58:25;145.27;;;132.47;;
8397;SDS011;4236;54.504;9.588;2022-09-09T01:00:55;136.90;;;126.10;;
8397;SDS011;4236;54.504;9.588;2022-09-09T01:03:31;139.37;;;127.90;;
8397;SDS011;4236;54.504;9.588;2022-09-09T01:06:13;145.33;;;133.33;;
8397;SDS011;4236;54.504;9.588;2022-09-09T01:09:04;146.00;;;132.57;;
8397;SDS011;4236;54.504;9.588;2022-09-09T01:11:43;148.77;;;134.87;;
8397;SDS011;4236;54.504;9.588;2022-09-09T01:14:24;143.20;;;130.40;;
8397;SDS011;4236;54.504;9.588;2022-09-09T01:17:01;140.87;;;129.17;;
8397;SDS011;4236;54.504;9.588;2022-09-09T01:19:40;138.07;;;127.47;;
8397;SDS011;4236;54.504;9.588;2022-09-09T01:22:20;156.27;;;141.30;;
8397;SDS011;4236;54.504;9.588;2022-09-09T01:25:02;155.63;;;142.60;;
8397;SDS011;4236;54.504;9.588;2022-09-09T01:27:49;141.53;;;131.33;;
8397;SDS011;4236;54.504;9.588;2022-09-09T01:30:18;145.43;;;134.43;;
8397;SDS011;4236;54.504;9.588;2022-09-09T01:32:47;144.23;;;133.67;;
8397;SDS011;4236;54.504;9.588;2022-09-09T01:35:20;151.63;;;140.53;;
8397;SDS011;4236;54.504;9.588;2022-09-09T01:38:04;149.93;;;138.63;;
8397;SDS011;4236;54.504;9.588;2022-09-09T01:40:32;155.70;;;144.07;;
8397;SDS011;4236;54.504;9.588;2022-09-09T01:43:02;161.53;;;148.13;;
8397;SDS011;4236;54.504;9.588;2022-09-09T01:45:30;166.23;;;152.50;;
8397;SDS011;4236;54.504;9.588;2022-09-09T01:47:58;166.00;;;153.30;;
8397;SDS011;4236;54.504;9.588;2022-09-09T01:50:26;167.03;;;153.10;;
8397;SDS011;4236;54.504;9.588;2022-09-09T01:52:54;173.97;;;159.77;;
8397;SDS011;4236;54.504;9.588;2022-09-09T01:55:28;173.57;;;160.30;;
8397;SDS011;4236;54.504;9.588;2022-09-09T01:58:02;179.17;;;165.13;;
8397;SDS011;4236;54.504;9.588;2022-09-09T02:00:43;166.70;;;154.00;;
8397;SDS011;4236;54.504;9.588;2022-09-09T02:03:20;179.67;;;165.37;;
8397;SDS011;4236;54.504;9.588;2022-09-09T02:05:53;181.07;;;165.10;;
8397;SDS011;4236;54.504;9.588;2022-09-09T02:08:29;174.47;;;160.87;;
8397;SDS011;4236;54.504;9.588;2022-09-09T02:11:05;178.80;;;163.50;;
8397;SDS011;4236;54.504;9.588;2022-09-09T02:13:39;182.00;;;166.83;;
8397;SDS011;4236;54.504;9.588;2022-09-09T02:16:10;179.70;;;164.90;;
8397;SDS011;4236;54.504;9.588;2022-09-09T02:18:41;174.03;;;158.60;;
8397;SDS011;4236;54.504;9.588;2022-09-09T02:21:14;183.33;;;166.87;;
8397;SDS011;4236;54.504;9.588;2022-09-09T02:23:43;172.87;;;160.03;;
8397;SDS011;4236;54.504;9.588;2022-09-09T02:26:14;181.97;;;167.30;;
8397;SDS011;4236;54.504;9.588;2022-09-09T02:28:47;190.60;;;172.53;;
8397;SDS011;4236;54.504;9.588;2022-09-09T02:31:17;183.60;;;168.30;;
8397;SDS011;4236;54.504;9.588;2022-09-09T02:33:48;186.00;;;171.10;;
8397;SDS011;4236;54.504;9.588;2022-09-09T02:36:19;188.00;;;172.70;;
8397;SDS011;4236;54.504;9.588;2022-09-09T02:38:51;193.00;;;176.50;;
8397;SDS011;4236;54.504;9.588;2022-09-09T02:41:20;188.17;;;172.07;;
8397;SDS011;4236;54.504;9.588;2022-09-09T02:43:52;187.83;;;172.53;;
8397;SDS011;4236;54.504;9.588;2022-09-09T02:46:26;191.50;;;173.00;;
8397;SDS011;4236;54.504;9.588;2022-09-09T02:49:03;200.73;;;182.17;;
8397;SDS011;4236;54.504;9.588;2022-09-09T02:51:39;181.77;;;167.27;;
8397;SDS011;4236;54.504;9.588;2022-09-09T02:54:15;183.17;;;167.43;;
8397;SDS011;4236;54.504;9.588;2022-09-09T02:56:51;172.97;;;158.97;;
8397;SDS011;4236;54.504;9.588;2022-09-09T02:59:22;184.07;;;167.87;;
8397;SDS011;4236;54.504;9.588;2022-09-09T03:01:52;176.23;;;160.77;;
8397;SDS011;4236;54.504;9.588;2022-09-09T03:04:20;175.47;;;160.57;;
8397;SDS011;4236;54.504;9.588;2022-09-09T03:06:47;184.80;;;168.40;;
8397;SDS011;4236;54.504;9.588;2022-09-09T03:09:15;181.77;;;165.87;;
8397;SDS011;4236;54.504;9.588;2022-09-09T03:11:43;174.73;;;160.27;;
8397;SDS011;4236;54.504;9.588;2022-09-09T03:14:11;173.63;;;159.93;;
8397;SDS011;4236;54.504;9.588;2022-09-09T03:16:40;178.47;;;162.17;;
8397;SDS011;4236;54.504;9.588;2022-09-09T03:19:09;156.27;;;144.67;;
8397;SDS011;4236;54.504;9.588;2022-09-09T03:21:36;160.87;;;148.53;;
8397;SDS011;4236;54.504;9.588;2022-09-09T03:24:04;159.23;;;145.57;;
8397;SDS011;4236;54.504;9.588;2022-09-09T03:26:32;160.07;;;146.13;;
8397;SDS011;4236;54.504;9.588;2022-09-09T03:29:00;160.33;;;146.00;;
8397;SDS011;4236;54.504;9.588;2022-09-09T03:31:28;165.80;;;148.93;;
8397;SDS011;4236;54.504;9.588;2022-09-09T03:33:57;160.23;;;145.40;;
8397;SDS011;4236;54.504;9.588;2022-09-09T03:36:25;146.93;;;133.07;;
8397;SDS011;4236;54.504;9.588;2022-09-09T03:38:54;146.60;;;132.90;;
8397;SDS011;4236;54.504;9.588;2022-09-09T03:41:22;143.87;;;129.83;;
8397;SDS011;4236;54.504;9.588;2022-09-09T03:43:50;136.37;;;122.37;;
8397;SDS011;4236;54.504;9.588;2022-09-09T03:46:18;125.07;;;113.70;;
8397;SDS011;4236;54.504;9.588;2022-09-09T03:48:46;132.13;;;115.90;;
8397;SDS011;4236;54.504;9.588;2022-09-09T03:51:15;121.70;;;108.60;;
8397;SDS011;4236;54.504;9.588;2022-09-09T03:53:43;110.90;;;100.00;;
8397;SDS011;4236;54.504;9.588;2022-09-09T03:56:11;117.57;;;106.27;;
8397;SDS011;4236;54.504;9.588;2022-09-09T03:58:38;122.93;;;109.33;;
8397;SDS011;4236;54.504;9.588;2022-09-09T04:01:08;115.13;;;102.23;;
8397;SDS011;4236;54.504;9.588;2022-09-09T04:03:39;109.27;;;97.33;;
8397;SDS011;4236;54.504;9.588;2022-09-09T04:06:08;96.23;;;86.03;;
8397;SDS011;4236;54.504;9.588;2022-09-09T04:08:40;130.83;;;101.10;;
8397;SDS011;4236;54.504;9.588;2022-09-09T04:11:08;124.47;;;99.13;;
8397;SDS011;4236;54.504;9.588;2022-09-09T04:13:36;140.03;;;105.13;;
8397;SDS011;4236;54.504;9.588;2022-09-09T04:16:05;121.70;;;101.23;;
8397;SDS011;4236;54.504;9.588;2022-09-09T04:18:34;119.60;;;95.73;;
8397;SDS011;4236;54.504;9.588;2022-09-09T04:21:02;117.17;;;100.20;;
8397;SDS011;4236;54.504;9.588;2022-09-09T04:23:32;105.53;;;94.07;;
8397;SDS011;4236;54.504;9.588;2022-09-09T04:26:02;121.13;;;95.33;;
8397;SDS011;4236;54.504;9.588;2022-09-09T04:28:31;100.23;;;85.60;;
8397;SDS011;4236;54.504;9.588;2022-09-09T04:31:05;100.33;;;88.63;;
8397;SDS011;4236;54.504;9.588;2022-09-09T04:33:35;101.90;;;87.37;;
8397;SDS011;4236;54.504;9.588;2022-09-09T04:36:05;115.17;;;92.07;;
8397;SDS011;4236;54.504;9.588;2022-09-09T04:38:33;114.07;;;94.13;;
8397;SDS011;4236;54.504;9.588;2022-09-09T04:41:03;98.93;;;85.13;;
8397;SDS011;4236;54.504;9.588;2022-09-09T04:43:31;135.17;;;97.87;;
8397;SDS011;4236;54.504;9.588;2022-09-09T04:45:58;119.53;;;94.83;;
8397;SDS011;4236;54.504;9.588;2022-09-09T04:48:26;98.43;;;86.50;;
8397;SDS011;4236;54.504;9.588;2022-09-09T04:50:54;87.90;;;78.93;;
8397;SDS011;4236;54.504;9.588;2022-09-09T04:53:23;97.07;;;86.63;;
8397;SDS011;4236;54.504;9.588;2022-09-09T04:55:51;103.10;;;85.13;;
8397;SDS011;4236;54.504;9.588;2022-09-09T04:58:20;102.30;;;90.20;;
8397;SDS011;4236;54.504;9.588;2022-09-09T05:00:49;123.40;;;92.97;;
8397;SDS011;4236;54.504;9.588;2022-09-09T05:03:18;106.43;;;90.53;;
8397;SDS011;4236;54.504;9.588;2022-09-09T05:05:45;123.97;;;98.90;;
8397;SDS011;4236;54.504;9.588;2022-09-09T05:08:13;108.80;;;91.87;;
8397;SDS011;4236;54.504;9.588;2022-09-09T05:10:41;104.70;;;91.87;;
8397;SDS011;4236;54.504;9.588;2022-09-09T05:13:08;113.60;;;88.97;;
8397;SDS011;4236;54.504;9.588;2022-09-09T05:15:38;94.60;;;84.70;;
8397;SDS011;4236;54.504;9.588;2022-09-09T05:18:07;126.40;;;95.97;;
8397;SDS011;4236;54.504;9.588;2022-09-09T05:20:34;95.40;;;85.20;;
8397;SDS011;4236;54.504;9.588;2022-09-09T05:23:02;107.93;;;88.97;;
8397;SDS011;4236;54.504;9.588;2022-09-09T05:25:29;98.10;;;80.07;;
8397;SDS011;4236;54.504;9.588;2022-09-09T05:27:58;102.40;;;81.07;;
8397;SDS011;4236;54.504;9.588;2022-09-09T05:30:25;102.37;;;83.43;;
8397;SDS011;4236;54.504;9.588;2022-09-09T05:32:56;96.43;;;75.53;;
8397;SDS011;4236;54.504;9.588;2022-09-09T05:35:24;110.83;;;82.97;;
8397;SDS011;4236;54.504;9.588;2022-09-09T05:37:51;87.03;;;73.20;;
8397;SDS011;4236;54.504;9.588;2022-09-09T05:40:19;90.97;;;76.87;;
8397;SDS011;4236;54.504;9.588;2022-09-09T05:42:47;87.50;;;70.07;;
8397;SDS011;4236;54.504;9.588;2022-09-09T05:45:15;78.60;;;70.03;;
8397;SDS011;4236;54.504;9.588;2022-09-09T05:47:43;75.37;;;64.80;;
8397;SDS011;4236;54.504;9.588;2022-09-09T05:50:11;91.23;;;75.73;;
8397;SDS011;4236;54.504;9.588;2022-09-09T05:52:41;80.73;;;68.33;;
8397;SDS011;4236;54.504;9.588;2022-09-09T05:55:10;96.10;;;74.67;;
8397;SDS011;4236;54.504;9.588;2022-09-09T05:57:38;75.30;;;65.50;;
8397;SDS011;4236;54.504;9.588;2022-09-09T06:00:07;72.57;;;63.33;;
8397;SDS011;4236;54.504;9.588;2022-09-09T06:02:35;82.30;;;70.80;;
8397;SDS011;4236;54.504;9.588;2022-09-09T06:05:05;93.73;;;70.13;;
8397;SDS011;4236;54.504;9.588;2022-09-09T06:07:35;73.47;;;65.90;;
8397;SDS011;4236;54.504;9.588;2022-09-09T06:10:03;66.80;;;59.77;;
8397;SDS011;4236;54.504;9.588;2022-09-09T06:12:32;70.90;;;63.63;;
8397;SDS011;4236;54.504;9.588;2022-09-09T06:14:59;84.07;;;68.30;;
8397;SDS011;4236;54.504;9.588;2022-09-09T06:17:27;95.07;;;71.30;;
8397;SDS011;4236;54.504;9.588;2022-09-09T06:19:54;67.90;;;59.97;;
8397;SDS011;4236;54.504;9.588;2022-09-09T06:22:22;71.73;;;63.53;;
8397;SDS011;4236;54.504;9.588;2022-09-09T06:24:51;78.33;;;66.83;;
8397;SDS011;4236;54.504;9.588;2022-09-09T06:27:19;70.33;;;61.53;;
8397;SDS011;4236;54.504;9.588;2022-09-09T06:29:47;70.23;;;63.17;;
8397;SDS011;4236;54.504;9.588;2022-09-09T06:32:15;67.77;;;60.43;;
8397;SDS011;4236;54.504;9.588;2022-09-09T06:34:43;66.63;;;59.77;;
8397;SDS011;4236;54.504;9.588;2022-09-09T06:37:11;68.50;;;60.77;;
8397;SDS011;4236;54.504;9.588;2022-09-09T06:39:39;66.87;;;59.33;;
8397;SDS011;4236;54.504;9.588;2022-09-09T06:42:08;66.43;;;59.97;;
8397;SDS011;4236;54.504;9.588;2022-09-09T06:44:35;81.73;;;67.97;;
8397;SDS011;4236;54.504;9.588;2022-09-09T06:47:03;77.80;;;65.20;;
8397;SDS011;4236;54.504;9.588;2022-09-09T06:49:31;71.27;;;60.23;;
8397;SDS011;4236;54.504;9.588;2022-09-09T06:51:59;64.77;;;57.80;;
8397;SDS011;4236;54.504;9.588;2022-09-09T06:54:26;71.67;;;61.03;;
8397;SDS011;4236;54.504;9.588;2022-09-09T06:56:54;67.60;;;60.60;;
8397;SDS011;4236;54.504;9.588;2022-09-09T06:59:23;65.60;;;58.60;;
8397;SDS011;4236;54.504;9.588;2022-09-09T07:01:52;64.80;;;57.97;;
8397;SDS011;4236;54.504;9.588;2022-09-09T07:04:21;65.97;;;59.37;;
8397;SDS011;4236;54.504;9.588;2022-09-09T07:06:49;61.83;;;55.27;;
8397;SDS011;4236;54.504;9.588;2022-09-09T07:09:18;68.10;;;61.00;;
8397;SDS011;4236;54.504;9.588;2022-09-09T07:11:46;65.47;;;58.67;;
8397;SDS011;4236;54.504;9.588;2022-09-09T07:14:16;70.50;;;62.63;;
8397;SDS011;4236;54.504;9.588;2022-09-09T07:16:45;68.63;;;61.10;;
8397;SDS011;4236;54.504;9.588;2022-09-09T07:19:14;63.70;;;57.00;;
8397;SDS011;4236;54.504;9.588;2022-09-09T07:21:42;62.20;;;55.63;;
8397;SDS011;4236;54.504;9.588;2022-09-09T07:24:10;66.70;;;59.60;;
8397;SDS011;4236;54.504;9.588;2022-09-09T07:26:39;67.17;;;59.93;;
8397;SDS011;4236;54.504;9.588;2022-09-09T07:29:07;76.17;;;62.40;;
8397;SDS011;4236;54.504;9.588;2022-09-09T07:31:36;70.20;;;62.83;;
8397;SDS011;4236;54.504;9.588;2022-09-09T07:34:07;64.57;;;58.17;;
8397;SDS011;4236;54.504;9.588;2022-09-09T07:36:36;66.83;;;60.17;;
8397;SDS011;4236;54.504;9.588;2022-09-09T07:39:06;67.60;;;57.00;;
8397;SDS011;4236;54.504;9.588;2022-09-09T07:41:35;62.43;;;56.17;;
8397;SDS011;4236;54.504;9.588;2022-09-09T07:44:06;65.00;;;58.70;;
8397;SDS011;4236;54.504;9.588;2022-09-09T07:46:37;66.50;;;59.47;;
8397;SDS011;4236;54.504;9.588;2022-09-09T07:49:05;66.53;;;59.83;;
8397;SDS011;4236;54.504;9.588;2022-09-09T07:51:36;66.20;;;59.23;;
8397;SDS011;4236;54.504;9.588;2022-09-09T07:54:06;61.63;;;55.87;;
8397;SDS011;4236;54.504;9.588;2022-09-09T07:56:36;60.50;;;54.83;;
8397;SDS011;4236;54.504;9.588;2022-09-09T07:59:06;58.27;;;52.77;;
8397;SDS011;4236;54.504;9.588;2022-09-09T08:01:35;56.43;;;51.00;;
8397;SDS011;4236;54.504;9.588;2022-09-09T08:04:06;58.60;;;53.43;;
8397;SDS011;4236;54.504;9.588;2022-09-09T08:06:37;58.53;;;52.77;;
8397;SDS011;4236;54.504;9.588;2022-09-09T08:09:06;55.57;;;50.70;;
8397;SDS011;4236;54.504;9.588;2022-09-09T08:11:35;57.70;;;52.60;;
8397;SDS011;4236;54.504;9.588;2022-09-09T08:14:04;55.57;;;50.33;;
8397;SDS011;4236;54.504;9.588;2022-09-09T08:16:32;55.27;;;50.07;;
8397;SDS011;4236;54.504;9.588;2022-09-09T08:19:02;57.17;;;51.97;;
8397;SDS011;4236;54.504;9.588;2022-09-09T08:21:33;57.07;;;52.17;;
8397;SDS011;4236;54.504;9.588;2022-09-09T08:24:02;53.97;;;49.53;;
8397;SDS011;4236;54.504;9.588;2022-09-09T08:26:33;58.40;;;53.03;;
8397;SDS011;4236;54.504;9.588;2022-09-09T08:29:02;57.63;;;52.63;;
8397;SDS011;4236;54.504;9.588;2022-09-09T08:31:32;51.70;;;47.33;;
8397;SDS011;4236;54.504;9.588;2022-09-09T08:34:01;53.67;;;49.13;;
8397;SDS011;4236;54.504;9.588;2022-09-09T08:36:30;56.40;;;51.30;;
8397;SDS011;4236;54.504;9.588;2022-09-09T08:39:01;58.23;;;53.43;;
8397;SDS011;4236;54.504;9.588;2022-09-09T08:41:37;56.47;;;51.90;;
8397;SDS011;4236;54.504;9.588;2022-09-09T08:44:13;52.97;;;48.70;;
8397;SDS011;4236;54.504;9.588;2022-09-09T08:46:51;53.60;;;48.87;;
8397;SDS011;4236;54.504;9.588;2022-09-09T08:49:34;56.50;;;52.00;;
8397;SDS011;4236;54.504;9.588;2022-09-09T08:52:18;53.80;;;48.80;;
8397;SDS011;4236;54.504;9.588;2022-09-09T08:54:49;50.40;;;46.30;;
8397;SDS011;4236;54.504;9.588;2022-09-09T08:57:19;52.93;;;48.87;;
8397;SDS011;4236;54.504;9.588;2022-09-09T08:59:52;50.67;;;46.33;;
8397;SDS011;4236;54.504;9.588;2022-09-09T09:02:24;52.33;;;48.07;;
8397;SDS011;4236;54.504;9.588;2022-09-09T09:05:00;56.00;;;51.10;;
8397;SDS011;4236;54.504;9.588;2022-09-09T09:07:48;47.60;;;43.90;;
8397;SDS011;4236;54.504;9.588;2022-09-09T09:10:32;44.87;;;41.40;;
8397;SDS011;4236;54.504;9.588;2022-09-09T09:13:11;44.77;;;41.20;;
8397;SDS011;4236;54.504;9.588;2022-09-09T09:15:43;44.60;;;40.87;;
8397;SDS011;4236;54.504;9.588;2022-09-09T09:18:14;39.77;;;36.67;;
8397;SDS011;4236;54.504;9.588;2022-09-09T09:20:47;43.23;;;39.53;;
8397;SDS011;4236;54.504;9.588;2022-09-09T09:23:23;41.13;;;37.73;;
8397;SDS011;4236;54.504;9.588;2022-09-09T09:25:52;44.40;;;41.23;;
8397;SDS011;4236;54.504;9.588;2022-09-09T09:28:24;43.03;;;40.03;;
8397;SDS011;4236;54.504;9.588;2022-09-09T09:30:53;45.37;;;42.00;;
8397;SDS011;4236;54.504;9.588;2022-09-09T09:33:25;51.03;;;46.83;;
8397;SDS011;4236;54.504;9.588;2022-09-09T09:35:59;51.13;;;46.90;;
8397;SDS011;4236;54.504;9.588;2022-09-09T09:38:28;53.47;;;49.17;;
8397;SDS011;4236;54.504;9.588;2022-09-09T09:41:16;49.43;;;45.67;;
8397;SDS011;4236;54.504;9.588;2022-09-09T09:43:52;53.73;;;49.77;;
8397;SDS011;4236;54.504;9.588;2022-09-09T09:46:21;52.20;;;48.20;;
8397;SDS011;4236;54.504;9.588;2022-09-09T09:48:58;50.00;;;46.20;;
8397;SDS011;4236;54.504;9.588;2022-09-09T09:51:27;48.30;;;44.70;;
8397;SDS011;4236;54.504;9.588;2022-09-09T09:54:04;50.20;;;46.77;;
8397;SDS011;4236;54.504;9.588;2022-09-09T09:56:49;51.50;;;47.77;;
8397;SDS011;4236;54.504;9.588;2022-09-09T09:59:20;46.67;;;43.17;;
8397;SDS011;4236;54.504;9.588;2022-09-09T10:02:20;44.87;;;41.60;;
8397;SDS011;4236;54.504;9.588;2022-09-09T10:04:59;41.93;;;39.20;;
8397;SDS011;4236;54.504;9.588;2022-09-09T10:07:28;44.97;;;41.37;;
8397;SDS011;4236;54.504;9.588;2022-09-09T10:09:57;42.87;;;39.83;;
8397;SDS011;4236;54.504;9.588;2022-09-09T10:12:30;44.23;;;41.00;;
8397;SDS011;4236;54.504;9.588;2022-09-09T10:15:15;46.33;;;43.17;;
8397;SDS011;4236;54.504;9.588;2022-09-09T10:17:57;40.87;;;38.00;;
8397;SDS011;4236;54.504;9.588;2022-09-09T10:20:37;47.50;;;44.10;;
8397;SDS011;4236;54.504;9.588;2022-09-09T10:23:17;44.30;;;41.03;;
8397;SDS011;4236;54.504;9.588;2022-09-09T10:26:01;45.07;;;41.87;;
8397;SDS011;4236;54.504;9.588;2022-09-09T10:28:54;45.23;;;42.33;;
8397;SDS011;4236;54.504;9.588;2022-09-09T10:31:34;38.80;;;36.20;;
8397;SDS011;4236;54.504;9.588;2022-09-09T10:34:15;36.30;;;34.03;;
8397;SDS011;4236;54.504;9.588;2022-09-09T10:36:56;38.53;;;36.13;;
8397;SDS011;4236;54.504;9.588;2022-09-09T10:39:29;41.00;;;38.60;;
8397;SDS011;4236;54.504;9.588;2022-09-09T10:42:11;35.37;;;33.10;;
8397;SDS011;4236;54.504;9.588;2022-09-09T10:44:54;35.43;;;33.13;;
8397;SDS011;4236;54.504;9.588;2022-09-09T10:47:37;33.23;;;31.33;;
8397;SDS011;4236;54.504;9.588;2022-09-09T10:50:23;32.43;;;30.40;;
8397;SDS011;4236;54.504;9.588;2022-09-09T10:53:27;33.23;;;31.20;;
8397;SDS011;4236;54.504;9.588;2022-09-09T10:56:15;31.87;;;30.03;;
8397;SDS011;4236;54.504;9.588;2022-09-09T10:58:48;30.90;;;29.20;;
8397;SDS011;4236;54.504;9.588;2022-09-09T11:01:20;32.70;;;30.70;;
8397;SDS011;4236;54.504;9.588;2022-09-09T11:03:52;33.10;;;31.00;;
8397;SDS011;4236;54.504;9.588;2022-09-09T11:06:25;31.17;;;29.17;;
8397;SDS011;4236;54.504;9.588;2022-09-09T11:08:59;33.50;;;31.60;;
8397;SDS011;4236;54.504;9.588;2022-09-09T11:11:30;28.00;;;26.60;;
8397;SDS011;4236;54.504;9.588;2022-09-09T11:14:05;29.67;;;27.97;;
8397;SDS011;4236;54.504;9.588;2022-09-09T11:16:39;28.17;;;26.77;;
8397;SDS011;4236;54.504;9.588;2022-09-09T11:19:12;27.03;;;25.73;;
8397;SDS011;4236;54.504;9.588;2022-09-09T11:21:47;28.83;;;27.10;;
8397;SDS011;4236;54.504;9.588;2022-09-09T11:24:18;27.43;;;25.73;;
8397;SDS011;4236;54.504;9.588;2022-09-09T11:26:51;25.03;;;23.83;;
8397;SDS011;4236;54.504;9.588;2022-09-09T11:29:38;25.63;;;24.33;;
8397;SDS011;4236;54.504;9.588;2022-09-09T11:32:40;23.90;;;22.73;;
8397;SDS011;4236;54.504;9.588;2022-09-09T11:35:34;25.87;;;24.27;;
8397;SDS011;4236;54.504;9.588;2022-09-09T11:38:19;22.90;;;22.00;;
8397;SDS011;4236;54.504;9.588;2022-09-09T11:40:55;24.20;;;22.93;;
8397;SDS011;4236;54.504;9.588;2022-09-09T11:43:30;23.47;;;22.37;;
8397;SDS011;4236;54.504;9.588;2022-09-09T11:46:02;22.00;;;20.90;;
8397;SDS011;4236;54.504;9.588;2022-09-09T11:48:34;19.43;;;18.33;;
8397;SDS011;4236;54.504;9.588;2022-09-09T11:51:05;18.70;;;17.90;;
8397;SDS011;4236;54.504;9.588;2022-09-09T11:53:49;18.90;;;18.00;;
8397;SDS011;4236;54.504;9.588;2022-09-09T11:56:26;16.00;;;15.27;;
8397;SDS011;4236;54.504;9.588;2022-09-09T11:58:57;16.43;;;15.43;;
8397;SDS011;4236;54.504;9.588;2022-09-09T12:01:36;15.10;;;14.30;;
8397;SDS011;4236;54.504;9.588;2022-09-09T12:07:03;14.30;;;13.40;;
8397;SDS011;4236;54.504;9.588;2022-09-09T12:09:50;13.47;;;12.77;;
8397;SDS011;4236;54.504;9.588;2022-09-09T12:12:24;14.37;;;13.67;;
8397;SDS011;4236;54.504;9.588;2022-09-09T12:15:00;13.30;;;12.70;;
8397;SDS011;4236;54.504;9.588;2022-09-09T12:17:48;11.47;;;11.00;;
8397;SDS011;4236;54.504;9.588;2022-09-09T12:20:18;12.10;;;11.53;;
8397;SDS011;4236;54.504;9.588;2022-09-09T12:22:57;13.20;;;12.50;;
8397;SDS011;4236;54.504;9.588;2022-09-09T12:25:35;11.87;;;11.27;;
8397;SDS011;4236;54.504;9.588;2022-09-09T12:28:15;11.20;;;10.60;;
8397;SDS011;4236;54.504;9.588;2022-09-09T12:30:48;9.33;;;8.67;;
8397;SDS011;4236;54.504;9.588;2022-09-09T12:33:33;9.00;;;8.70;;
8397;SDS011;4236;54.504;9.588;2022-09-09T12:36:03;9.47;;;8.93;;
8397;SDS011;4236;54.504;9.588;2022-09-09T12:38:34;7.43;;;7.03;;
8397;SDS011;4236;54.504;9.588;2022-09-09T12:41:04;7.50;;;7.10;;
8397;SDS011;4236;54.504;9.588;2022-09-09T12:43:32;8.23;;;7.57;;
8397;SDS011;4236;54.504;9.588;2022-09-09T12:46:00;7.20;;;6.90;;
8397;SDS011;4236;54.504;9.588;2022-09-09T12:48:34;6.20;;;6.00;;
8397;SDS011;4236;54.504;9.588;2022-09-09T12:51:04;6.50;;;6.20;;
8397;SDS011;4236;54.504;9.588;2022-09-09T12:53:43;7.00;;;6.80;;
8397;SDS011;4236;54.504;9.588;2022-09-09T12:56:18;6.60;;;6.30;;
8397;SDS011;4236;54.504;9.588;2022-09-09T12:58:47;5.83;;;5.63;;
8397;SDS011;4236;54.504;9.588;2022-09-09T13:01:18;6.30;;;6.00;;
8397;SDS011;4236;54.504;9.588;2022-09-09T13:03:50;6.40;;;6.10;;
8397;SDS011;4236;54.504;9.588;2022-09-09T13:06:19;6.00;;;5.70;;
8397;SDS011;4236;54.504;9.588;2022-09-09T13:08:54;5.97;;;5.67;;
8397;SDS011;4236;54.504;9.588;2022-09-09T13:11:25;5.30;;;5.10;;
8397;SDS011;4236;54.504;9.588;2022-09-09T13:13:56;5.67;;;5.47;;
8397;SDS011;4236;54.504;9.588;2022-09-09T13:16:25;5.63;;;5.43;;
8397;SDS011;4236;54.504;9.588;2022-09-09T13:18:59;5.87;;;5.50;;
8397;SDS011;4236;54.504;9.588;2022-09-09T13:21:32;5.13;;;4.93;;
8397;SDS011;4236;54.504;9.588;2022-09-09T13:24:01;5.80;;;5.50;;
8397;SDS011;4236;54.504;9.588;2022-09-09T13:26:30;5.33;;;5.13;;
8397;SDS011;4236;54.504;9.588;2022-09-09T13:29:07;5.70;;;5.50;;
8397;SDS011;4236;54.504;9.588;2022-09-09T13:31:42;5.87;;;5.67;;
8397;SDS011;4236;54.504;9.588;2022-09-09T13:34:12;5.90;;;5.60;;
8397;SDS011;4236;54.504;9.588;2022-09-09T13:36:41;6.00;;;5.80;;
8397;SDS011;4236;54.504;9.588;2022-09-09T13:39:13;5.30;;;5.00;;
8397;SDS011;4236;54.504;9.588;2022-09-09T13:41:44;5.73;;;5.50;;
8397;SDS011;4236;54.504;9.588;2022-09-09T13:44:17;5.00;;;4.80;;
8397;SDS011;4236;54.504;9.588;2022-09-09T13:46:59;5.00;;;4.80;;
8397;SDS011;4236;54.504;9.588;2022-09-09T13:49:36;4.93;;;4.73;;
8397;SDS011;4236;54.504;9.588;2022-09-09T13:52:04;4.57;;;4.37;;
8397;SDS011;4236;54.504;9.588;2022-09-09T13:54:36;4.50;;;4.20;;
8397;SDS011;4236;54.504;9.588;2022-09-09T13:57:03;4.30;;;4.00;;
8397;SDS011;4236;54.504;9.588;2022-09-09T13:59:31;3.97;;;3.77;;
8397;SDS011;4236;54.504;9.588;2022-09-09T14:02:19;4.43;;;4.23;;
8397;SDS011;4236;54.504;9.588;2022-09-09T14:04:48;4.40;;;4.20;;
8397;SDS011;4236;54.504;9.588;2022-09-09T14:07:21;4.53;;;4.23;;
8397;SDS011;4236;54.504;9.588;2022-09-09T14:09:49;4.40;;;4.10;;
8397;SDS011;4236;54.504;9.588;2022-09-09T14:12:17;4.50;;;4.30;;
8397;SDS011;4236;54.504;9.588;2022-09-09T14:14:46;4.17;;;4.07;;
8397;SDS011;4236;54.504;9.588;2022-09-09T14:17:13;3.80;;;3.60;;
8397;SDS011;4236;54.504;9.588;2022-09-09T14:19:41;3.70;;;3.60;;
8397;SDS011;4236;54.504;9.588;2022-09-09T14:22:12;3.90;;;3.70;;
8397;SDS011;4236;54.504;9.588;2022-09-09T14:24:39;3.90;;;3.70;;
8397;SDS011;4236;54.504;9.588;2022-09-09T14:27:07;3.93;;;3.83;;
8397;SDS011;4236;54.504;9.588;2022-09-09T14:29:35;3.90;;;3.63;;
8397;SDS011;4236;54.504;9.588;2022-09-09T14:32:03;4.10;;;3.90;;
8397;SDS011;4236;54.504;9.588;2022-09-09T14:34:37;3.73;;;3.43;;
8397;SDS011;4236;54.504;9.588;2022-09-09T14:37:04;4.80;;;4.40;;
8397;SDS011;4236;54.504;9.588;2022-09-09T14:39:33;4.63;;;4.10;;
8397;SDS011;4236;54.504;9.588;2022-09-09T14:42:01;4.03;;;3.90;;
8397;SDS011;4236;54.504;9.588;2022-09-09T14:44:29;4.73;;;4.53;;
8397;SDS011;4236;54.504;9.588;2022-09-09T14:46:56;4.83;;;4.53;;
8397;SDS011;4236;54.504;9.588;2022-09-09T14:49:24;4.40;;;4.30;;
8397;SDS011;4236;54.504;9.588;2022-09-09T14:51:52;4.70;;;4.50;;
8397;SDS011;4236;54.504;9.588;2022-09-09T14:54:19;4.80;;;4.43;;
8397;SDS011;4236;54.504;9.588;2022-09-09T14:56:50;4.60;;;4.40;;
8397;SDS011;4236;54.504;9.588;2022-09-09T14:59:18;5.30;;;5.00;;
8397;SDS011;4236;54.504;9.588;2022-09-09T15:01:45;5.03;;;4.63;;
8397;SDS011;4236;54.504;9.588;2022-09-09T15:04:13;4.67;;;4.47;;
8397;SDS011;4236;54.504;9.588;2022-09-09T15:06:41;5.07;;;4.73;;
8397;SDS011;4236;54.504;9.588;2022-09-09T15:09:10;4.10;;;4.00;;
8397;SDS011;4236;54.504;9.588;2022-09-09T15:11:38;4.80;;;4.50;;
8397;SDS011;4236;54.504;9.588;2022-09-09T15:14:07;5.27;;;4.87;;
8397;SDS011;4236;54.504;9.588;2022-09-09T15:16:36;4.67;;;4.47;;
8397;SDS011;4236;54.504;9.588;2022-09-09T15:19:04;4.63;;;4.33;;